Details From UIUU - Mukhino
To UIII - Irkutsk
Flight Number -
Tags Generated
Created
Modified
Stats Distance 116 nm / 215 km
Max Altitude 0 ft / 0 m
Waypoints 2
Social Downloads 3
Likes 0
Share VATSIM

Download

Looking for another format? Having issues loading an existing format? Contact us
Advertisement - Login to hide

Notes

Generated

Route

UIUU UIII

ID Type Via Altitude Latitude Longitude Leg Dist Tot Dist Heading (true) Name
O UIUU APT - 0 ft / 0 m 51.81900˚ 107.43437˚ - 0 nm - -
O UIII APT - 0 ft / 0 m 52.27217˚ 104.37436˚ 116 nm 116 nm 285° / 282° -

Altitude Profile

Advertisement - Login to hide

UIUU

Details ICAO UIUU (UUD)
Name MUKHINO
Region Russia
Timezone Asia/Irkutsk (UTC+8.0)
Stats Elevation 1,690 ft / 515 m (AMSL)
Location 51.810816° 107.441023°
Runways 3
Magnetic Variation 5.426° W

METAR

UIUU 170630Z 33008G13MPS 300V010 5000 -SHSN BLSN BKN022CB M10/M16 Q1028 R26/491036 NOSIG RMK QFE726/0968

Decode

TAF

TAF UIUU 170500Z 1706/1806 32008G15MPS 3100 -SHSN BLSN BKN011CB TEMPO 1706/1803 30003G08MPS 1400 SHSN

Decode

Departure Runways

ID Width Length Bearing (true) Bearing (mag) Surface Threshold Offset Overrun Length
08 148 ft / 45 m 9,753 ft / 2,973 m 77.98° 83.41° Concrete 0 ft / 0 m 161 ft / 49 m
08L 341 ft / 104 m 6,682 ft / 2,037 m 78.10° 83.53° Grass 0 ft / 0 m 0 ft / 0 m
14 315 ft / 96 m 4,620 ft / 1,408 m 135.31° 140.74° Grass 0 ft / 0 m 0 ft / 0 m
26 148 ft / 45 m 9,753 ft / 2,973 m 258.01° 263.44° Concrete 0 ft / 0 m 171 ft / 52 m
26R 341 ft / 104 m 6,682 ft / 2,037 m 258.12° 263.55° Grass 0 ft / 0 m 0 ft / 0 m
32 315 ft / 96 m 4,620 ft / 1,408 m 315.32° 320.75° Grass 0 ft / 0 m 0 ft / 0 m

UIII

Details ICAO UIII (IKT)
Name Irkutsk
Region Russia
Timezone Asia/Irkutsk (UTC+8.0)
Stats Elevation 1,675 ft / 511 m (AMSL)
Location 52.266437° 104.395694°
Runways 1
Magnetic Variation 3.761° W

METAR

UIII 170630Z 32006MPS 9999 FEW020CB M11/M15 Q1034 R30/490531 NOSIG RMK QFE730/0973

Decode

TAF

TAF UIII 170500Z 1706/1806 31007MPS 9999 DRSN BKN015CB TEMPO 1706/1712 32012MPS 2000 SHSN BLSN BECMG 1713/1715 VRB01MPS NSW

Decode

Destination Runways

ID Width Length Bearing (true) Bearing (mag) Surface Threshold Offset Overrun Length
12 148 ft / 45 m 10,408 ft / 3,172 m 113.68° 117.44° Concrete 1,312 ft / 400 m 266 ft / 81 m
30 148 ft / 45 m 10,408 ft / 3,172 m 293.72° 297.48° Concrete 1,178 ft / 359 m 1,316 ft / 401 m

Approach Navaids

Runway Type Ident Frequency Range Bearing (true) Bearing (mag) Slope Elevation
12 Localiser ICN 111.30 MHz 18 nm / 33 km 113.46° 117.22° - 1,675 ft / 511 m (AMSL)
12 Glidescope ICN 111.30 MHz 10 nm / 19 km 113.70° 117.46° 3.30° 1,675 ft / 511 m (AMSL)
30 Localiser IIR 110.30 MHz 18 nm / 33 km 293.46° 297.22° - 1,675 ft / 511 m (AMSL)
30 Glidescope IIR 110.30 MHz 10 nm / 19 km 293.70° 297.46° 3.30° 1,675 ft / 511 m (AMSL)

Popular Alternatives